首页
METAR-TAF:

METAR-TAF

机场 :

利姆诺斯岛, 希腊

纬度: 39-55N, 经度: 025-14E, 海拔: 5米

当前天气观测

该预报发布于1小时和11分钟前的00:50 UTC
静风
温度 15°C
湿度 88%
气压 1010 hPa
能见度10公里或以上
少量云层高于1800英尺, 塔状积云.

METAR: LGLM 010050Z 00000KT 9999 FEW018TCU 15/13 Q1010

时间: 05:01 (02:01 UTC)

预报

该预报发布于3小时和1分钟前的23:00 UTC
预报有效从01日的 00点(UTC)到 01日的 09点(UTC)
风速8节,风向
能见度10公里或以上
散云层高于1800英尺
几率 40% :
短暂存在
从 01日的 00点(UTC)到 01日的 09点(UTC)
能見度: 5000
多云层高于1800英尺
几率 40% :
短暂存在
从 01日的 00点(UTC)到 01日的 09点(UTC)
能見度: 3000
少量云层高于1600英尺, 积雨云.
多云层高于1800英尺
雷暴, 雨

TAF: LGLM 312300Z 0100/0109 17008KT 9999 SCT018 PROB40 TEMPO 0100/0109 5000 RA BKN018 PROB40 TEMPO 0100/0109 3000 TSRA FEW016CB BKN018

超过4000个机场的气象观测和天气预报(METAR&TAF报告)。

可查询的气象台以黄色和红色小点在地图上表示。

将鼠标移到小点上方,可查看气象台名称。

然后点击查看天气观测和预报。

如需切换地图:点击带黑十字的绿色按钮放大地图;点击带横线的绿色按钮缩小地图;或者点击绿色箭头查看邻近地区的地图。


METAR-TAF: